Time;durP1;ratioP1;P1;durP2;ratioP2;P2;SDS_P1;SDS_P2;PMS_P1;PMS_P2;Temp;Humidity;BMP_temperature;BMP_pressure;BME280_temperature;BME280_humidity;BME280_pressure;Samples;Min_cycle;Max_cycle;Signal;HPM_P1;HPM_P2
2023/01/20 00:01:51;;;;;;;1.27;0.60;;;;;;;;;;7384377;19;20131;-60
2023/01/20 00:04:19;;;;;;;0.60;0.60;;;;;;;;;;7382612;19;20168;-60
2023/01/20 00:06:45;;;;;;;3.00;1.03;;;;;;;;;;7389165;19;20133;-59
2023/01/20 00:09:15;;;;;;;0.83;0.83;;;;;;;;;;7373807;19;20129;-60
2023/01/20 00:11:40;;;;;;;0.67;0.67;;;;;;;;;;7386396;19;20137;-60
2023/01/20 00:14:05;;;;;;;0.60;0.60;;;;;;;;;;7390427;19;20153;-60
2023/01/20 00:16:31;;;;;;;0.60;0.60;;;;;;;;;;7378285;19;20527;-60
2023/01/20 00:18:57;;;;;;;0.97;0.53;;;;;;;;;;7370589;19;20567;-60
2023/01/20 00:21:22;;;;;;;0.57;0.57;;;;;;;;;;7390180;19;20146;-60
2023/01/20 00:23:48;;;;;;;0.50;0.50;;;;;;;;;;7388959;19;20192;-60
2023/01/20 00:26:18;;;;;;;0.67;0.63;;;;;;;;;;7375923;19;20128;-60
2023/01/20 00:28:44;;;;;;;1.00;0.97;;;;;;;;;;7375993;19;20128;-60
2023/01/20 00:31:12;;;;;;;1.03;1.03;;;;;;;;;;7386679;19;20596;-60
2023/01/20 00:33:38;;;;;;;1.20;1.13;;;;;;;;;;7383709;19;20145;-60
2023/01/20 00:36:03;;;;;;;1.90;0.80;;;;;;;;;;7387966;19;20622;-60
2023/01/20 00:38:29;;;;;;;2.00;0.97;;;;;;;;;;7384482;19;20145;-60
2023/01/20 00:40:54;;;;;;;2.30;1.03;;;;;;;;;;7393052;19;20157;-60
2023/01/20 00:43:20;;;;;;;2.13;1.37;;;;;;;;;;7389177;19;20156;-60
2023/01/20 00:45:45;;;;;;;1.00;0.97;;;;;;;;;;7387009;19;20230;-60
2023/01/20 00:48:10;;;;;;;0.87;0.87;;;;;;;;;;7393140;19;20128;-60
2023/01/20 00:50:35;;;;;;;0.30;0.30;;;;;;;;;;7387331;19;20109;-60
2023/01/20 00:53:01;;;;;;;1.60;1.50;;;;;;;;;;7389662;19;20125;-60
2023/01/20 00:55:26;;;;;;;0.83;0.70;;;;;;;;;;7388764;19;20381;-60
2023/01/20 00:57:51;;;;;;;0.83;0.83;;;;;;;;;;7390774;19;20139;-60
2023/01/20 01:00:17;;;;;;;0.30;0.30;;;;;;;;;;7383414;19;20982;-60
2023/01/20 01:02:43;;;;;;;0.40;0.40;;;;;;;;;;7392947;19;20149;-60
2023/01/20 01:05:08;;;;;;;0.60;0.60;;;;;;;;;;7391568;19;20147;-60
2023/01/20 01:07:34;;;;;;;0.50;0.50;;;;;;;;;;7388646;19;20140;-60
2023/01/20 01:09:59;;;;;;;0.67;0.67;;;;;;;;;;7385369;19;20134;-60
2023/01/20 01:12:24;;;;;;;0.50;0.50;;;;;;;;;;7386945;19;20121;-60
2023/01/20 01:14:49;;;;;;;0.77;0.77;;;;;;;;;;7390771;19;20145;-60
2023/01/20 01:17:15;;;;;;;0.70;0.70;;;;;;;;;;7391092;19;20192;-60
2023/01/20 01:19:40;;;;;;;0.53;0.47;;;;;;;;;;7391951;19;20117;-60
2023/01/20 01:22:05;;;;;;;0.50;0.50;;;;;;;;;;7392609;19;20540;-60
2023/01/20 01:24:31;;;;;;;0.90;0.70;;;;;;;;;;7390741;19;20224;-60
2023/01/20 01:26:56;;;;;;;0.80;0.80;;;;;;;;;;7394047;19;20136;-60
2023/01/20 01:29:21;;;;;;;0.87;0.87;;;;;;;;;;7392849;19;20973;-60
2023/01/20 01:31:47;;;;;;;1.03;0.70;;;;;;;;;;7392021;19;20141;-60
2023/01/20 01:34:12;;;;;;;2.43;0.83;;;;;;;;;;7388676;19;20208;-60
2023/01/20 01:36:37;;;;;;;1.20;1.10;;;;;;;;;;7392062;19;20128;-60
2023/01/20 01:39:03;;;;;;;0.80;0.80;;;;;;;;;;7386764;19;20162;-60
2023/01/20 01:41:28;;;;;;;0.63;0.63;;;;;;;;;;7390482;19;20184;-60
2023/01/20 01:44:03;;;;;;;1.00;1.00;;;;;;;;;;7388510;19;20169;-60
2023/01/20 01:46:29;;;;;;;1.03;1.00;;;;;;;;;;7389491;19;20124;-60
2023/01/20 01:48:55;;;;;;;0.93;0.90;;;;;;;;;;7389590;19;20525;-60
2023/01/20 01:51:23;;;;;;;0.40;0.40;;;;;;;;;;7387650;19;20142;-60
2023/01/20 01:54:02;;;;;;;0.90;0.90;;;;;;;;;;7390946;19;20144;-60
2023/01/20 01:56:28;;;;;;;0.70;0.70;;;;;;;;;;7392428;19;20124;-60
2023/01/20 01:58:56;;;;;;;2.30;0.87;;;;;;;;;;7390567;19;20109;-60
2023/01/20 02:01:21;;;;;;;0.63;0.63;;;;;;;;;;7390745;19;20121;-60
2023/01/20 02:03:59;;;;;;;1.07;0.97;;;;;;;;;;7391413;19;20564;-60
2023/01/20 02:06:28;;;;;;;0.80;0.77;;;;;;;;;;7390030;19;20121;-60
2023/01/20 02:08:54;;;;;;;0.60;0.60;;;;;;;;;;7388002;19;20591;-60
2023/01/20 02:11:19;;;;;;;0.90;0.90;;;;;;;;;;7390632;19;20117;-60
2023/01/20 02:13:45;;;;;;;0.40;0.40;;;;;;;;;;7389631;19;20145;-60
2023/01/20 02:16:16;;;;;;;1.63;1.03;;;;;;;;;;7392812;19;20117;-60
2023/01/20 02:19:04;;;;;;;0.40;0.40;;;;;;;;;;7392813;19;20172;-60
2023/01/20 02:21:57;;;;;;;0.40;0.40;;;;;;;;;;7385986;19;20121;-60
2023/01/20 02:24:47;;;;;;;0.80;0.80;;;;;;;;;;7387277;19;20157;-60
2023/01/20 02:27:22;;;;;;;0.30;0.30;;;;;;;;;;7382888;19;20113;-60
2023/01/20 02:30:10;;;;;;;0.47;0.47;;;;;;;;;;7384492;19;20120;-60
2023/01/20 02:32:37;;;;;;;0.40;0.40;;;;;;;;;;7382933;19;20123;-60
2023/01/20 02:35:10;;;;;;;0.47;0.47;;;;;;;;;;7383851;19;20160;-60
2023/01/20 02:37:46;;;;;;;0.40;0.40;;;;;;;;;;7380981;19;20120;-60
2023/01/20 02:40:21;;;;;;;0.47;0.47;;;;;;;;;;7382199;19;20112;-60
2023/01/20 02:43:15;;;;;;;0.27;0.27;;;;;;;;;;7388103;19;20131;-60
2023/01/20 02:45:54;;;;;;;0.47;0.47;;;;;;;;;;7384444;19;20137;-60
2023/01/20 02:48:28;;;;;;;0.57;0.57;;;;;;;;;;7380527;19;20186;-60
2023/01/20 02:51:06;;;;;;;0.40;0.40;;;;;;;;;;7386809;19;20115;-60
2023/01/20 02:53:37;;;;;;;0.57;0.57;;;;;;;;;;7378681;19;20148;-60
2023/01/20 02:56:03;;;;;;;0.97;0.93;;;;;;;;;;7384779;19;20128;-60
2023/01/20 02:58:33;;;;;;;0.33;0.33;;;;;;;;;;7383866;19;20143;-60
2023/01/20 03:01:04;;;;;;;1.13;0.70;;;;;;;;;;7384649;19;20132;-60
2023/01/20 03:03:33;;;;;;;0.80;0.80;;;;;;;;;;7392432;19;20145;-63
2023/01/20 03:06:01;;;;;;;1.23;0.60;;;;;;;;;;7390448;19;20127;-60
2023/01/20 03:08:29;;;;;;;0.40;0.40;;;;;;;;;;7391858;19;20591;-60
2023/01/20 03:10:58;;;;;;;0.80;0.80;;;;;;;;;;7389781;19;20133;-60
2023/01/20 03:13:49;;;;;;;0.50;0.50;;;;;;;;;;7389533;19;20171;-60
2023/01/20 03:16:17;;;;;;;0.50;0.50;;;;;;;;;;7397292;19;20141;-60
2023/01/20 03:18:43;;;;;;;0.70;0.70;;;;;;;;;;7400677;19;20117;-60
2023/01/20 03:21:09;;;;;;;0.50;0.50;;;;;;;;;;7392989;19;20156;-60
2023/01/20 03:23:37;;;;;;;1.53;0.63;;;;;;;;;;7390268;19;20200;-60
2023/01/20 03:26:06;;;;;;;0.93;0.93;;;;;;;;;;7392959;19;20129;-60
2023/01/20 03:28:31;;;;;;;0.53;0.53;;;;;;;;;;7398076;19;20118;-60
2023/01/20 03:30:57;;;;;;;0.50;0.50;;;;;;;;;;7395224;19;20612;-60
2023/01/20 03:33:23;;;;;;;0.57;0.57;;;;;;;;;;7398130;19;20125;-60
2023/01/20 03:35:48;;;;;;;1.37;1.00;;;;;;;;;;7396878;19;20582;-60
2023/01/20 03:38:14;;;;;;;0.87;0.73;;;;;;;;;;7397667;19;20599;-60
2023/01/20 03:41:05;;;;;;;1.33;1.20;;;;;;;;;;7396486;19;20109;-60
2023/01/20 03:43:43;;;;;;;0.40;0.40;;;;;;;;;;7394826;19;20156;-60
2023/01/20 03:46:29;;;;;;;0.50;0.40;;;;;;;;;;7388820;19;20121;-60
2023/01/20 03:49:11;;;;;;;0.60;0.60;;;;;;;;;;7394262;19;20125;-61
2023/01/20 03:51:55;;;;;;;0.40;0.40;;;;;;;;;;7390452;19;20144;-60
2023/01/20 03:54:27;;;;;;;0.63;0.63;;;;;;;;;;7386618;19;20204;-60
2023/01/20 03:57:03;;;;;;;2.03;0.93;;;;;;;;;;7383311;19;20117;-60
2023/01/20 03:59:31;;;;;;;0.70;0.70;;;;;;;;;;7391328;19;20132;-60
2023/01/20 04:02:01;;;;;;;1.20;0.80;;;;;;;;;;7386692;19;20121;-60
2023/01/20 04:04:28;;;;;;;4.47;0.77;;;;;;;;;;7385304;19;20226;-60
2023/01/20 04:06:54;;;;;;;0.50;0.50;;;;;;;;;;7396452;19;20117;-60
2023/01/20 04:09:23;;;;;;;0.67;0.60;;;;;;;;;;7394447;19;20156;-60
2023/01/20 04:11:49;;;;;;;0.30;0.30;;;;;;;;;;7392112;19;20158;-60
2023/01/20 04:14:14;;;;;;;1.20;1.03;;;;;;;;;;7395548;19;20137;-60
2023/01/20 04:16:40;;;;;;;0.67;0.60;;;;;;;;;;7395663;19;20180;-60
2023/01/20 04:19:05;;;;;;;1.47;0.97;;;;;;;;;;7396809;19;20181;-60
2023/01/20 04:21:36;;;;;;;0.47;0.47;;;;;;;;;;7394294;19;20121;-60
2023/01/20 04:24:10;;;;;;;1.07;0.70;;;;;;;;;;7393101;19;20145;-60
2023/01/20 04:26:35;;;;;;;0.60;0.60;;;;;;;;;;7394605;19;20127;-60
2023/01/20 04:29:07;;;;;;;0.60;0.60;;;;;;;;;;7390305;19;20189;-60
2023/01/20 04:31:35;;;;;;;0.53;0.53;;;;;;;;;;7394875;19;20543;-60
2023/01/20 04:34:01;;;;;;;0.57;0.57;;;;;;;;;;7395416;19;20600;-60
2023/01/20 04:36:26;;;;;;;0.40;0.40;;;;;;;;;;7392380;19;20129;-60
2023/01/20 04:38:52;;;;;;;7.30;0.73;;;;;;;;;;7394529;19;20133;-60
2023/01/20 04:41:17;;;;;;;0.60;0.60;;;;;;;;;;7392069;19;20222;-60
2023/01/20 04:43:44;;;;;;;0.30;0.30;;;;;;;;;;7386606;19;20137;-60
2023/01/20 04:46:13;;;;;;;0.50;0.50;;;;;;;;;;7382703;19;20123;-60
2023/01/20 04:48:38;;;;;;;1.00;0.63;;;;;;;;;;7391025;19;20602;-60
2023/01/20 04:51:04;;;;;;;2.47;0.80;;;;;;;;;;7385253;19;20136;-61
2023/01/20 04:53:30;;;;;;;0.30;0.30;;;;;;;;;;7390488;19;20303;-60
2023/01/20 04:55:55;;;;;;;0.40;0.40;;;;;;;;;;7389343;19;20654;-60
2023/01/20 04:58:20;;;;;;;0.77;0.63;;;;;;;;;;7385770;19;20134;-60
2023/01/20 05:00:46;;;;;;;0.60;0.60;;;;;;;;;;7384158;19;20173;-60
2023/01/20 05:03:11;;;;;;;0.70;0.70;;;;;;;;;;7385879;19;20219;-60
2023/01/20 05:05:36;;;;;;;2.00;1.03;;;;;;;;;;7386624;19;20144;-60
2023/01/20 05:08:03;;;;;;;1.17;1.07;;;;;;;;;;7388557;19;20121;-60
2023/01/20 05:10:30;;;;;;;0.73;0.73;;;;;;;;;;7386948;19;20124;-60
2023/01/20 05:12:55;;;;;;;1.43;1.33;;;;;;;;;;7386852;19;20117;-60
2023/01/20 05:15:21;;;;;;;0.77;0.60;;;;;;;;;;7379072;19;20490;-60
2023/01/20 05:17:46;;;;;;;1.13;0.93;;;;;;;;;;7390495;19;20117;-60
2023/01/20 05:20:11;;;;;;;1.07;0.77;;;;;;;;;;7387334;19;20140;-60
2023/01/20 05:22:36;;;;;;;0.40;0.40;;;;;;;;;;7388411;19;20117;-60
2023/01/20 05:25:02;;;;;;;0.70;0.70;;;;;;;;;;7385922;19;20156;-60
2023/01/20 05:27:27;;;;;;;0.47;0.47;;;;;;;;;;7385758;19;20907;-60
2023/01/20 05:29:53;;;;;;;1.93;1.27;;;;;;;;;;7386156;19;20121;-60
2023/01/20 05:32:18;;;;;;;0.70;0.70;;;;;;;;;;7385759;19;20146;-60
2023/01/20 05:34:43;;;;;;;0.80;0.80;;;;;;;;;;7383070;19;20148;-60
2023/01/20 05:37:08;;;;;;;0.67;0.67;;;;;;;;;;7386131;19;20800;-60
2023/01/20 05:39:34;;;;;;;0.40;0.40;;;;;;;;;;7387164;19;20117;-60
2023/01/20 05:42:00;;;;;;;0.70;0.70;;;;;;;;;;7381546;19;20147;-60
2023/01/20 05:44:25;;;;;;;0.60;0.60;;;;;;;;;;7384596;19;20152;-60
2023/01/20 05:46:51;;;;;;;0.60;0.60;;;;;;;;;;7386954;19;20132;-60
2023/01/20 05:49:16;;;;;;;0.70;0.70;;;;;;;;;;7383875;19;20125;-60
2023/01/20 05:51:41;;;;;;;0.70;0.70;;;;;;;;;;7391770;19;20594;-60
2023/01/20 05:54:07;;;;;;;0.53;0.53;;;;;;;;;;7392958;19;20144;-60
2023/01/20 05:56:32;;;;;;;0.80;0.80;;;;;;;;;;7387660;19;20614;-60
2023/01/20 05:58:58;;;;;;;0.33;0.33;;;;;;;;;;7376227;19;20667;-60
2023/01/20 06:01:23;;;;;;;0.60;0.60;;;;;;;;;;7381169;19;20117;-60
2023/01/20 06:03:48;;;;;;;0.60;0.60;;;;;;;;;;7385407;19;20208;-60
2023/01/20 06:06:16;;;;;;;0.63;0.63;;;;;;;;;;7385925;19;20528;-60
2023/01/20 06:08:41;;;;;;;1.17;1.00;;;;;;;;;;7379300;19;20129;-60
2023/01/20 06:11:07;;;;;;;0.30;0.30;;;;;;;;;;7383964;19;20145;-60
2023/01/20 06:13:34;;;;;;;0.60;0.60;;;;;;;;;;7389453;19;20560;-60
2023/01/20 06:15:59;;;;;;;0.90;0.90;;;;;;;;;;7388354;19;20145;-60
2023/01/20 06:18:24;;;;;;;0.90;0.90;;;;;;;;;;7385332;19;20573;-60
2023/01/20 06:20:50;;;;;;;0.50;0.50;;;;;;;;;;7388561;19;20504;-60
2023/01/20 06:23:15;;;;;;;0.60;0.60;;;;;;;;;;7389909;19;20586;-60
2023/01/20 06:25:41;;;;;;;0.67;0.67;;;;;;;;;;7385536;19;20156;-60
2023/01/20 06:28:07;;;;;;;0.60;0.60;;;;;;;;;;7372424;19;20121;-60
2023/01/20 06:30:32;;;;;;;0.77;0.77;;;;;;;;;;7375191;19;20136;-60
2023/01/20 06:32:59;;;;;;;0.60;0.60;;;;;;;;;;7370067;19;20149;-60
2023/01/20 06:35:24;;;;;;;0.43;0.43;;;;;;;;;;7379407;19;20157;-60
2023/01/20 06:37:50;;;;;;;0.40;0.40;;;;;;;;;;7375680;19;26492;-60
2023/01/20 06:40:15;;;;;;;1.03;0.77;;;;;;;;;;7368555;19;20156;-60
2023/01/20 06:42:41;;;;;;;0.90;0.90;;;;;;;;;;7374967;19;20452;-60
2023/01/20 06:45:07;;;;;;;0.40;0.40;;;;;;;;;;7374847;19;20140;-60
2023/01/20 06:47:32;;;;;;;0.80;0.80;;;;;;;;;;7372757;19;20147;-60
2023/01/20 06:49:57;;;;;;;0.80;0.80;;;;;;;;;;7379805;19;20148;-60
2023/01/20 06:52:22;;;;;;;0.57;0.57;;;;;;;;;;7378022;19;20121;-60
2023/01/20 06:54:48;;;;;;;0.57;0.57;;;;;;;;;;7370247;19;20509;-60
2023/01/20 06:57:13;;;;;;;0.60;0.60;;;;;;;;;;7370150;19;20136;-60
2023/01/20 06:59:38;;;;;;;0.87;0.87;;;;;;;;;;7373453;19;20170;-62
2023/01/20 07:02:04;;;;;;;0.70;0.70;;;;;;;;;;7361919;19;20523;-60
2023/01/20 07:04:29;;;;;;;0.90;0.90;;;;;;;;;;7379905;19;20149;-60
2023/01/20 07:06:54;;;;;;;0.63;0.63;;;;;;;;;;7374365;19;20114;-60
2023/01/20 07:09:20;;;;;;;0.87;0.87;;;;;;;;;;7376394;19;20498;-60
2023/01/20 07:11:45;;;;;;;1.27;1.20;;;;;;;;;;7380125;19;20134;-60
2023/01/20 07:14:10;;;;;;;1.13;1.13;;;;;;;;;;7380626;19;20141;-60
2023/01/20 07:16:36;;;;;;;0.43;0.43;;;;;;;;;;7376853;19;21014;-60
2023/01/20 07:19:01;;;;;;;0.97;0.97;;;;;;;;;;7374805;19;20156;-61
2023/01/20 07:21:27;;;;;;;0.87;0.87;;;;;;;;;;7374433;19;20599;-60
2023/01/20 07:23:52;;;;;;;0.40;0.40;;;;;;;;;;7381253;19;20177;-60
2023/01/20 07:26:19;;;;;;;1.03;1.00;;;;;;;;;;7369379;19;20985;-60
2023/01/20 07:28:45;;;;;;;0.70;0.70;;;;;;;;;;7373099;19;20128;-60
2023/01/20 07:31:15;;;;;;;0.77;0.50;;;;;;;;;;7378865;19;20152;-61
2023/01/20 07:33:41;;;;;;;0.93;0.93;;;;;;;;;;7372900;19;20232;-60
2023/01/20 07:36:08;;;;;;;0.40;0.40;;;;;;;;;;7377472;19;20628;-60
2023/01/20 07:38:33;;;;;;;0.40;0.40;;;;;;;;;;7366127;19;20125;-60
2023/01/20 07:41:00;;;;;;;0.60;0.60;;;;;;;;;;7373801;19;20122;-60
2023/01/20 07:43:25;;;;;;;0.70;0.70;;;;;;;;;;7368860;19;20160;-60
2023/01/20 07:45:58;;;;;;;1.20;0.77;;;;;;;;;;7371773;19;20599;-60
2023/01/20 07:48:24;;;;;;;0.50;0.50;;;;;;;;;;7385292;19;20517;-60
2023/01/20 07:51:00;;;;;;;0.43;0.43;;;;;;;;;;7394340;19;20625;-60
2023/01/20 07:53:26;;;;;;;0.50;0.50;;;;;;;;;;7393825;19;20487;-60
2023/01/20 07:55:51;;;;;;;0.70;0.70;;;;;;;;;;7390979;19;20129;-60
2023/01/20 07:58:16;;;;;;;0.90;0.80;;;;;;;;;;7395855;19;20595;-60
2023/01/20 08:00:42;;;;;;;0.70;0.70;;;;;;;;;;7393278;19;20132;-60
2023/01/20 08:03:07;;;;;;;0.67;0.67;;;;;;;;;;7392378;19;20121;-60
2023/01/20 08:05:32;;;;;;;0.43;0.43;;;;;;;;;;7388674;19;20153;-60
2023/01/20 08:07:57;;;;;;;0.53;0.53;;;;;;;;;;7395315;19;20117;-60
2023/01/20 08:10:23;;;;;;;0.83;0.83;;;;;;;;;;7393872;19;20837;-60
2023/01/20 08:12:48;;;;;;;0.60;0.60;;;;;;;;;;7388702;19;20121;-60
2023/01/20 08:15:13;;;;;;;1.67;1.40;;;;;;;;;;7389844;19;20153;-60
2023/01/20 08:17:39;;;;;;;0.63;0.63;;;;;;;;;;7388318;19;20117;-60
2023/01/20 08:20:05;;;;;;;0.43;0.43;;;;;;;;;;7387191;19;20113;-60
2023/01/20 08:22:30;;;;;;;1.33;1.03;;;;;;;;;;7393279;19;20158;-60
2023/01/20 08:24:55;;;;;;;0.90;0.90;;;;;;;;;;7391593;19;20162;-60
2023/01/20 08:27:21;;;;;;;1.03;0.93;;;;;;;;;;7391302;19;20187;-60
2023/01/20 08:29:46;;;;;;;1.20;1.20;;;;;;;;;;7381317;19;20487;-60
2023/01/20 08:32:11;;;;;;;2.80;1.17;;;;;;;;;;7391260;19;20626;-60
2023/01/20 08:34:36;;;;;;;0.70;0.70;;;;;;;;;;7389013;19;20509;-60
2023/01/20 08:37:02;;;;;;;0.70;0.70;;;;;;;;;;7393542;19;20121;-61
2023/01/20 08:39:27;;;;;;;1.63;1.30;;;;;;;;;;7391239;19;20118;-60
2023/01/20 08:41:52;;;;;;;0.47;0.47;;;;;;;;;;7379224;19;20512;-60
2023/01/20 08:44:19;;;;;;;0.67;0.67;;;;;;;;;;7385806;19;20141;-60
2023/01/20 08:46:44;;;;;;;0.83;0.83;;;;;;;;;;7395057;19;20164;-60
2023/01/20 08:49:13;;;;;;;0.80;0.80;;;;;;;;;;7387420;19;20109;-60
2023/01/20 08:51:39;;;;;;;0.87;0.87;;;;;;;;;;7389517;19;20125;-60
2023/01/20 08:54:04;;;;;;;0.80;0.80;;;;;;;;;;7392309;19;20136;-60
2023/01/20 08:56:30;;;;;;;2.20;1.20;;;;;;;;;;7395197;19;20153;-60
2023/01/20 08:58:57;;;;;;;1.33;1.23;;;;;;;;;;7391922;19;20124;-60
2023/01/20 09:01:25;;;;;;;0.50;0.50;;;;;;;;;;7391621;19;20125;-61
2023/01/20 09:03:51;;;;;;;0.90;0.87;;;;;;;;;;7392641;19;20141;-61
2023/01/20 09:06:17;;;;;;;1.27;1.17;;;;;;;;;;7394630;19;20117;-60
2023/01/20 09:08:42;;;;;;;1.10;1.03;;;;;;;;;;7393243;19;20586;-60
2023/01/20 09:11:11;;;;;;;0.73;0.73;;;;;;;;;;7391616;19;20180;-60
2023/01/20 09:13:36;;;;;;;0.67;0.67;;;;;;;;;;7392299;19;20646;-61
2023/01/20 09:16:03;;;;;;;1.07;1.00;;;;;;;;;;7392333;19;20153;-60
2023/01/20 09:18:32;;;;;;;0.53;0.53;;;;;;;;;;7391104;19;20567;-61
2023/01/20 09:20:58;;;;;;;1.17;1.07;;;;;;;;;;7391711;19;20121;-61
2023/01/20 09:23:24;;;;;;;2.20;2.03;;;;;;;;;;7392346;19;20125;-60
2023/01/20 09:25:49;;;;;;;0.73;0.73;;;;;;;;;;7392453;19;20181;-60
2023/01/20 09:28:14;;;;;;;1.20;1.10;;;;;;;;;;7393299;19;20595;-60
2023/01/20 09:30:41;;;;;;;1.17;1.07;;;;;;;;;;7392877;19;20117;-60
2023/01/20 09:33:07;;;;;;;1.27;1.17;;;;;;;;;;7391128;19;20144;-61
2023/01/20 09:35:32;;;;;;;0.50;0.50;;;;;;;;;;7390990;19;20220;-60
2023/01/20 09:44:12;;;;;;;0.90;0.90;;;;;;;;;;7391152;19;20173;-61
2023/01/20 09:47:18;;;;;;;0.70;0.70;;;;;;;;;;7388370;19;20140;-60
2023/01/20 09:55:45;;;;;;;1.37;0.90;;;;;;;;;;7390263;19;20160;-60
2023/01/20 09:58:19;;;;;;;1.03;0.83;;;;;;;;;;7390955;19;20133;-60
2023/01/20 10:00:53;;;;;;;1.23;0.97;;;;;;;;;;7390642;19;20193;-61
2023/01/20 10:03:26;;;;;;;0.40;0.40;;;;;;;;;;7384479;19;20903;-61
2023/01/20 10:05:54;;;;;;;0.80;0.80;;;;;;;;;;7391410;19;20121;-61
2023/01/20 10:08:25;;;;;;;0.50;0.50;;;;;;;;;;7387244;19;20472;-60
2023/01/20 10:10:59;;;;;;;0.80;0.80;;;;;;;;;;7390178;19;20117;-61
2023/01/20 10:13:28;;;;;;;0.80;0.80;;;;;;;;;;7388180;19;20117;-61
2023/01/20 10:15:54;;;;;;;0.87;0.87;;;;;;;;;;7388393;19;20121;-60
2023/01/20 10:18:36;;;;;;;0.33;0.33;;;;;;;;;;7390131;19;20626;-60
2023/01/20 10:21:08;;;;;;;1.03;1.03;;;;;;;;;;7373251;19;20470;-61
2023/01/20 10:23:54;;;;;;;0.83;0.83;;;;;;;;;;7376004;19;20144;-60
2023/01/20 10:26:31;;;;;;;0.90;0.90;;;;;;;;;;7380556;19;20121;-61
2023/01/20 10:28:59;;;;;;;0.67;0.40;;;;;;;;;;7374176;19;20131;-60
2023/01/20 10:31:27;;;;;;;0.40;0.40;;;;;;;;;;7376606;19;20620;-60
2023/01/20 10:33:56;;;;;;;1.10;1.00;;;;;;;;;;7374426;19;20506;-61
2023/01/20 10:36:28;;;;;;;0.70;0.70;;;;;;;;;;7381284;19;20125;-60
2023/01/20 10:39:08;;;;;;;0.97;0.97;;;;;;;;;;7375625;19;20193;-60
2023/01/20 10:41:38;;;;;;;0.73;0.73;;;;;;;;;;7379651;19;20145;-61
2023/01/20 10:44:12;;;;;;;1.27;1.00;;;;;;;;;;7379414;19;20212;-60
2023/01/20 10:47:02;;;;;;;1.00;0.80;;;;;;;;;;7375641;19;20135;-61
2023/01/20 10:49:27;;;;;;;1.23;1.13;;;;;;;;;;7385497;19;20129;-61
2023/01/20 10:52:05;;;;;;;0.67;0.67;;;;;;;;;;7375649;19;20192;-61
2023/01/20 10:54:45;;;;;;;0.90;0.77;;;;;;;;;;7367922;19;20216;-61
2023/01/20 10:57:12;;;;;;;0.57;0.57;;;;;;;;;;7380267;19;20117;-61
2023/01/20 10:59:47;;;;;;;1.23;1.23;;;;;;;;;;7363828;19;20125;-61
2023/01/20 11:02:25;;;;;;;0.70;0.70;;;;;;;;;;7361089;19;20134;-61
2023/01/20 11:04:57;;;;;;;0.87;0.87;;;;;;;;;;7375302;19;20265;-61
2023/01/20 11:07:23;;;;;;;0.63;0.60;;;;;;;;;;7380180;19;20153;-61
2023/01/20 11:09:49;;;;;;;0.63;0.63;;;;;;;;;;7379518;19;20121;-61
2023/01/20 11:12:23;;;;;;;0.23;0.23;;;;;;;;;;7377783;19;20129;-61
2023/01/20 11:14:49;;;;;;;0.30;0.30;;;;;;;;;;7374790;19;20178;-60
2023/01/20 11:17:16;;;;;;;0.40;0.40;;;;;;;;;;7376596;19;20624;-60
2023/01/20 11:19:52;;;;;;;0.20;0.20;;;;;;;;;;7378592;19;20595;-61
2023/01/20 11:22:25;;;;;;;0.30;0.30;;;;;;;;;;7379839;19;20141;-60
2023/01/20 11:24:54;;;;;;;0.30;0.30;;;;;;;;;;7375414;19;20162;-61
2023/01/20 11:27:21;;;;;;;0.20;0.20;;;;;;;;;;7389929;19;20132;-61
2023/01/20 11:30:07;;;;;;;0.20;0.20;;;;;;;;;;7383359;19;20125;-60
2023/01/20 11:32:38;;;;;;;0.30;0.30;;;;;;;;;;7386657;19;20125;-61
2023/01/20 11:35:24;;;;;;;0.30;0.30;;;;;;;;;;7374972;19;20607;-58
2023/01/20 11:37:50;;;;;;;0.23;0.23;;;;;;;;;;7374493;19;20536;-59
2023/01/20 11:40:18;;;;;;;0.70;0.40;;;;;;;;;;7380756;19;20213;-61
2023/01/20 11:42:45;;;;;;;0.20;0.20;;;;;;;;;;7387941;19;20132;-60
2023/01/20 11:45:33;;;;;;;0.40;0.40;;;;;;;;;;7379158;19;20148;-59
2023/01/20 11:48:16;;;;;;;0.37;0.37;;;;;;;;;;7395304;19;20136;-60
2023/01/20 11:50:56;;;;;;;0.30;0.30;;;;;;;;;;7390493;19;20136;-61
2023/01/20 11:53:25;;;;;;;0.20;0.20;;;;;;;;;;7377368;19;20502;-60
2023/01/20 11:55:52;;;;;;;0.40;0.40;;;;;;;;;;7393338;19;20630;-61
2023/01/20 11:59:07;;;;;;;0.30;0.30;;;;;;;;;;7380523;19;20196;-61
2023/01/20 12:01:56;;;;;;;0.50;0.50;;;;;;;;;;7390482;19;20148;-59
2023/01/20 12:04:25;;;;;;;0.40;0.40;;;;;;;;;;7384499;19;20216;-61
2023/01/20 12:06:55;;;;;;;0.30;0.30;;;;;;;;;;7382849;19;20144;-61
2023/01/20 12:09:26;;;;;;;1.17;1.10;;;;;;;;;;7385284;19;20259;-61
2023/01/20 12:11:58;;;;;;;0.47;0.47;;;;;;;;;;7378244;19;20161;-61
2023/01/20 12:14:33;;;;;;;0.47;0.47;;;;;;;;;;7384191;19;20149;-59
2023/01/20 12:17:01;;;;;;;1.27;1.17;;;;;;;;;;7382000;19;20137;-59
2023/01/20 12:19:56;;;;;;;0.60;0.60;;;;;;;;;;7377027;19;20398;-59
2023/01/20 12:22:39;;;;;;;0.77;0.77;;;;;;;;;;7374692;19;20133;-59
2023/01/20 12:25:13;;;;;;;0.60;0.60;;;;;;;;;;7380055;19;20149;-59
2023/01/20 12:28:03;;;;;;;0.67;0.67;;;;;;;;;;7374949;19;20629;-59
2023/01/20 12:30:54;;;;;;;0.60;0.60;;;;;;;;;;7382703;19;20635;-59
2023/01/20 12:33:23;;;;;;;0.50;0.50;;;;;;;;;;7381969;19;20125;-60
2023/01/20 12:36:15;;;;;;;1.20;1.20;;;;;;;;;;7375451;19;20129;-60
2023/01/20 12:39:20;;;;;;;0.53;0.47;;;;;;;;;;7376766;19;20455;-60
2023/01/20 12:42:06;;;;;;;0.43;0.43;;;;;;;;;;7378515;19;20121;-60
2023/01/20 12:44:46;;;;;;;0.43;0.43;;;;;;;;;;7386666;19;20216;-59
2023/01/20 12:47:20;;;;;;;0.40;0.40;;;;;;;;;;7379037;19;20226;-59
2023/01/20 12:50:13;;;;;;;1.00;1.00;;;;;;;;;;7385645;19;20125;-59
2023/01/20 12:53:13;;;;;;;0.70;0.70;;;;;;;;;;7366279;19;20613;-60
2023/01/20 12:55:56;;;;;;;0.93;0.93;;;;;;;;;;7373135;19;20129;-59
2023/01/20 12:58:38;;;;;;;0.90;0.90;;;;;;;;;;7373471;19;20117;-60
2023/01/20 13:01:26;;;;;;;0.60;0.60;;;;;;;;;;7362561;19;20129;-59
2023/01/20 13:03:54;;;;;;;1.10;1.03;;;;;;;;;;7368492;19;20216;-60
2023/01/20 13:06:31;;;;;;;1.60;1.33;;;;;;;;;;7373494;19;20121;-60
2023/01/20 13:09:12;;;;;;;1.23;0.83;;;;;;;;;;7383594;19;20116;-60
2023/01/20 13:11:44;;;;;;;0.77;0.77;;;;;;;;;;7388550;19;20392;-60
2023/01/20 13:14:12;;;;;;;1.07;0.63;;;;;;;;;;7383933;19;20475;-60
2023/01/20 13:16:49;;;;;;;0.73;0.73;;;;;;;;;;7370305;19;20177;-59
2023/01/20 13:19:36;;;;;;;0.77;0.70;;;;;;;;;;7388892;19;20153;-59
2023/01/20 13:22:13;;;;;;;1.07;1.07;;;;;;;;;;7387564;19;20129;-60
2023/01/20 13:24:41;;;;;;;0.40;0.40;;;;;;;;;;7389350;19;20157;-59
2023/01/20 13:27:08;;;;;;;0.87;0.87;;;;;;;;;;7388688;19;20121;-59
2023/01/20 13:29:33;;;;;;;0.47;0.47;;;;;;;;;;7381237;19;20152;-60
2023/01/20 13:31:58;;;;;;;1.03;1.00;;;;;;;;;;7373958;19;20148;-59
2023/01/20 13:34:24;;;;;;;0.30;0.30;;;;;;;;;;7374831;19;20172;-60
2023/01/20 13:37:02;;;;;;;3.00;0.73;;;;;;;;;;7378400;19;20121;-60
2023/01/20 13:39:32;;;;;;;0.67;0.67;;;;;;;;;;7382802;19;20125;-60
2023/01/20 13:41:57;;;;;;;0.50;0.50;;;;;;;;;;7382522;19;20129;-60
2023/01/20 13:44:38;;;;;;;2.20;1.20;;;;;;;;;;7381125;19;20492;-60
2023/01/20 13:47:08;;;;;;;0.30;0.30;;;;;;;;;;7369484;19;20471;-60
2023/01/20 13:49:46;;;;;;;0.40;0.40;;;;;;;;;;7378594;19;20124;-59
2023/01/20 13:52:12;;;;;;;0.87;0.87;;;;;;;;;;7373008;19;20128;-59
2023/01/20 13:54:45;;;;;;;0.80;0.80;;;;;;;;;;7380973;19;20153;-60
2023/01/20 13:57:20;;;;;;;0.50;0.50;;;;;;;;;;7382692;19;20151;-60
2023/01/20 13:59:45;;;;;;;1.00;1.00;;;;;;;;;;7382916;19;20129;-59
2023/01/20 14:02:22;;;;;;;0.60;0.60;;;;;;;;;;7381965;19;20638;-59
2023/01/20 14:04:48;;;;;;;0.53;0.53;;;;;;;;;;7375843;19;20668;-59
2023/01/20 14:07:24;;;;;;;0.93;0.93;;;;;;;;;;7380793;19;20125;-60
2023/01/20 14:09:51;;;;;;;0.50;0.50;;;;;;;;;;7384021;19;20601;-59
2023/01/20 14:12:16;;;;;;;0.87;0.70;;;;;;;;;;7376721;19;20129;-59
2023/01/20 14:14:42;;;;;;;1.13;1.13;;;;;;;;;;7362269;19;20548;-59
2023/01/20 14:17:14;;;;;;;0.63;0.60;;;;;;;;;;7376849;19;20204;-60
2023/01/20 14:19:39;;;;;;;1.90;0.97;;;;;;;;;;7383390;19;20490;-59
2023/01/20 14:22:27;;;;;;;0.87;0.83;;;;;;;;;;7371269;19;20121;-59
2023/01/20 14:24:57;;;;;;;0.30;0.30;;;;;;;;;;7384280;19;20168;-59
2023/01/20 14:27:26;;;;;;;0.30;0.30;;;;;;;;;;7387251;19;20600;-59
2023/01/20 14:29:53;;;;;;;0.77;0.77;;;;;;;;;;7380647;19;20125;-59
2023/01/20 14:32:22;;;;;;;0.70;0.70;;;;;;;;;;7365267;19;20124;-59
2023/01/20 14:34:47;;;;;;;0.40;0.40;;;;;;;;;;7378061;19;20827;-59
2023/01/20 14:37:22;;;;;;;0.20;0.20;;;;;;;;;;7361990;19;20132;-59
2023/01/20 14:39:48;;;;;;;0.20;0.20;;;;;;;;;;7364823;19;20209;-58
2023/01/20 14:42:19;;;;;;;0.20;0.20;;;;;;;;;;7385745;19;20508;-59
2023/01/20 14:44:52;;;;;;;0.43;0.43;;;;;;;;;;7378856;19;20145;-60
2023/01/20 14:47:18;;;;;;;1.47;1.20;;;;;;;;;;7374837;19;20154;-59
2023/01/20 14:49:46;;;;;;;1.20;1.13;;;;;;;;;;7380678;19;20165;-58
2023/01/20 14:52:18;;;;;;;1.27;1.23;;;;;;;;;;7371593;19;20131;-60
2023/01/20 14:54:44;;;;;;;0.80;0.80;;;;;;;;;;7377742;19;20148;-60
2023/01/20 14:57:30;;;;;;;1.03;1.03;;;;;;;;;;7379768;19;20620;-60
2023/01/20 15:00:12;;;;;;;0.77;0.77;;;;;;;;;;7364867;19;20192;-60
2023/01/20 15:02:39;;;;;;;1.43;0.83;;;;;;;;;;7365559;19;20501;-61
2023/01/20 15:05:18;;;;;;;1.03;1.03;;;;;;;;;;7374094;19;20145;-61
2023/01/20 15:07:43;;;;;;;1.43;1.33;;;;;;;;;;7379738;19;20121;-61
2023/01/20 15:10:15;;;;;;;1.23;1.13;;;;;;;;;;7368102;19;20121;-60
2023/01/20 15:12:46;;;;;;;1.00;1.00;;;;;;;;;;7379514;19;20117;-60